sensor_id;sensor_type;location;lat;lon;timestamp;temperature;humidity
45643;DHT22;31358;46.008;11.144;2022-08-19T00:01:28;19.30;99.90
45643;DHT22;31358;46.008;11.144;2022-08-19T00:03:56;19.30;99.90
45643;DHT22;31358;46.008;11.144;2022-08-19T00:06:21;19.40;99.90
45643;DHT22;31358;46.008;11.144;2022-08-19T00:08:47;19.30;99.90
45643;DHT22;31358;46.008;11.144;2022-08-19T00:11:13;19.20;99.90
45643;DHT22;31358;46.008;11.144;2022-08-19T00:13:39;19.30;99.90
45643;DHT22;31358;46.008;11.144;2022-08-19T00:16:05;19.30;99.90
45643;DHT22;31358;46.008;11.144;2022-08-19T00:18:32;19.20;99.90
45643;DHT22;31358;46.008;11.144;2022-08-19T00:20:58;19.20;99.90
45643;DHT22;31358;46.008;11.144;2022-08-19T00:23:25;19.20;99.90
45643;DHT22;31358;46.008;11.144;2022-08-19T00:25:51;19.20;99.90
45643;DHT22;31358;46.008;11.144;2022-08-19T00:28:18;19.10;99.90
45643;DHT22;31358;46.008;11.144;2022-08-19T00:30:43;19.10;99.90
45643;DHT22;31358;46.008;11.144;2022-08-19T00:33:10;19.10;99.90
45643;DHT22;31358;46.008;11.144;2022-08-19T00:35:35;19.00;99.90
45643;DHT22;31358;46.008;11.144;2022-08-19T00:38:04;19.00;99.90
45643;DHT22;31358;46.008;11.144;2022-08-19T00:40:32;19.00;99.90
45643;DHT22;31358;46.008;11.144;2022-08-19T00:42:57;19.10;99.90
45643;DHT22;31358;46.008;11.144;2022-08-19T00:45:25;19.20;99.90
45643;DHT22;31358;46.008;11.144;2022-08-19T00:47:51;19.10;99.90
45643;DHT22;31358;46.008;11.144;2022-08-19T00:50:19;19.30;99.90
45643;DHT22;31358;46.008;11.144;2022-08-19T00:52:47;19.40;99.90
45643;DHT22;31358;46.008;11.144;2022-08-19T00:55:26;19.30;99.90
45643;DHT22;31358;46.008;11.144;2022-08-19T00:57:56;19.30;99.90
45643;DHT22;31358;46.008;11.144;2022-08-19T01:00:25;19.20;99.90
45643;DHT22;31358;46.008;11.144;2022-08-19T01:02:52;19.30;99.90
45643;DHT22;31358;46.008;11.144;2022-08-19T01:05:23;19.40;99.90
45643;DHT22;31358;46.008;11.144;2022-08-19T01:07:50;19.40;99.90
45643;DHT22;31358;46.008;11.144;2022-08-19T01:10:19;19.20;99.90
45643;DHT22;31358;46.008;11.144;2022-08-19T01:12:47;19.10;99.90
45643;DHT22;31358;46.008;11.144;2022-08-19T01:15:17;19.00;99.90
45643;DHT22;31358;46.008;11.144;2022-08-19T01:17:45;18.90;99.90
45643;DHT22;31358;46.008;11.144;2022-08-19T01:20:18;18.90;99.90
45643;DHT22;31358;46.008;11.144;2022-08-19T01:25:20;18.80;99.90
45643;DHT22;31358;46.008;11.144;2022-08-19T01:27:49;18.70;99.90
45643;DHT22;31358;46.008;11.144;2022-08-19T01:30:22;18.80;99.90
45643;DHT22;31358;46.008;11.144;2022-08-19T01:32:49;18.70;99.90
45643;DHT22;31358;46.008;11.144;2022-08-19T01:35:16;18.70;99.90
45643;DHT22;31358;46.008;11.144;2022-08-19T01:40:16;18.60;99.90
45643;DHT22;31358;46.008;11.144;2022-08-19T01:42:42;18.60;99.90
45643;DHT22;31358;46.008;11.144;2022-08-19T01:45:08;18.70;99.90
45643;DHT22;31358;46.008;11.144;2022-08-19T01:47:36;18.70;99.90
45643;DHT22;31358;46.008;11.144;2022-08-19T01:50:03;18.70;99.90
45643;DHT22;31358;46.008;11.144;2022-08-19T01:52:28;18.70;99.90
45643;DHT22;31358;46.008;11.144;2022-08-19T01:54:54;18.80;99.90
45643;DHT22;31358;46.008;11.144;2022-08-19T01:57:20;18.70;99.90
45643;DHT22;31358;46.008;11.144;2022-08-19T01:59:46;18.70;99.90
45643;DHT22;31358;46.008;11.144;2022-08-19T02:02:12;18.80;99.90
45643;DHT22;31358;46.008;11.144;2022-08-19T02:04:38;18.80;99.90
45643;DHT22;31358;46.008;11.144;2022-08-19T02:07:04;18.80;99.90
45643;DHT22;31358;46.008;11.144;2022-08-19T02:09:31;18.90;99.90
45643;DHT22;31358;46.008;11.144;2022-08-19T02:11:57;18.90;99.90
45643;DHT22;31358;46.008;11.144;2022-08-19T02:14:23;18.90;99.90
45643;DHT22;31358;46.008;11.144;2022-08-19T02:16:48;19.00;99.90
45643;DHT22;31358;46.008;11.144;2022-08-19T02:19:14;19.00;99.90
45643;DHT22;31358;46.008;11.144;2022-08-19T02:21:40;19.00;99.90
45643;DHT22;31358;46.008;11.144;2022-08-19T02:24:06;19.10;99.90
45643;DHT22;31358;46.008;11.144;2022-08-19T02:26:32;19.20;99.90
45643;DHT22;31358;46.008;11.144;2022-08-19T02:28:57;19.20;99.90
45643;DHT22;31358;46.008;11.144;2022-08-19T02:31:25;19.10;99.90
45643;DHT22;31358;46.008;11.144;2022-08-19T02:33:53;19.10;99.90
45643;DHT22;31358;46.008;11.144;2022-08-19T02:36:18;19.20;99.90
45643;DHT22;31358;46.008;11.144;2022-08-19T02:38:44;19.20;99.90
45643;DHT22;31358;46.008;11.144;2022-08-19T02:41:19;19.20;99.90
45643;DHT22;31358;46.008;11.144;2022-08-19T02:43:45;19.20;99.90
45643;DHT22;31358;46.008;11.144;2022-08-19T02:46:24;19.10;99.90
45643;DHT22;31358;46.008;11.144;2022-08-19T02:48:53;19.10;99.90
45643;DHT22;31358;46.008;11.144;2022-08-19T02:51:22;19.00;99.90
45643;DHT22;31358;46.008;11.144;2022-08-19T02:53:48;19.10;99.90
45643;DHT22;31358;46.008;11.144;2022-08-19T02:56:14;19.20;99.90
45643;DHT22;31358;46.008;11.144;2022-08-19T02:58:40;19.40;99.90
45643;DHT22;31358;46.008;11.144;2022-08-19T03:01:06;19.30;99.90
45643;DHT22;31358;46.008;11.144;2022-08-19T03:03:32;19.10;99.90
45643;DHT22;31358;46.008;11.144;2022-08-19T03:06:10;19.00;99.90
45643;DHT22;31358;46.008;11.144;2022-08-19T03:08:37;19.00;99.90
45643;DHT22;31358;46.008;11.144;2022-08-19T03:11:03;18.90;99.90
45643;DHT22;31358;46.008;11.144;2022-08-19T03:13:29;18.80;99.90
45643;DHT22;31358;46.008;11.144;2022-08-19T03:15:55;18.90;99.90
45643;DHT22;31358;46.008;11.144;2022-08-19T03:18:21;18.80;99.90
45643;DHT22;31358;46.008;11.144;2022-08-19T03:20:51;18.90;99.90
45643;DHT22;31358;46.008;11.144;2022-08-19T03:23:20;18.90;99.90
45643;DHT22;31358;46.008;11.144;2022-08-19T03:25:47;18.70;99.90
45643;DHT22;31358;46.008;11.144;2022-08-19T03:28:14;18.60;99.90
45643;DHT22;31358;46.008;11.144;2022-08-19T03:30:41;18.50;99.90
45643;DHT22;31358;46.008;11.144;2022-08-19T03:33:08;18.70;99.90
45643;DHT22;31358;46.008;11.144;2022-08-19T03:35:34;18.60;99.90
45643;DHT22;31358;46.008;11.144;2022-08-19T03:38:04;18.40;99.90
45643;DHT22;31358;46.008;11.144;2022-08-19T03:40:32;18.40;99.90
45643;DHT22;31358;46.008;11.144;2022-08-19T03:43:00;18.30;99.90
45643;DHT22;31358;46.008;11.144;2022-08-19T03:45:26;18.20;99.90
45643;DHT22;31358;46.008;11.144;2022-08-19T03:47:53;18.20;99.90
45643;DHT22;31358;46.008;11.144;2022-08-19T03:50:19;18.30;99.90
45643;DHT22;31358;46.008;11.144;2022-08-19T03:52:49;18.40;99.90
45643;DHT22;31358;46.008;11.144;2022-08-19T03:55:16;18.20;99.90
45643;DHT22;31358;46.008;11.144;2022-08-19T03:57:42;18.30;99.90
45643;DHT22;31358;46.008;11.144;2022-08-19T04:00:08;18.40;99.90
45643;DHT22;31358;46.008;11.144;2022-08-19T04:02:34;18.30;99.90
45643;DHT22;31358;46.008;11.144;2022-08-19T04:05:00;18.20;99.90
45643;DHT22;31358;46.008;11.144;2022-08-19T04:07:25;18.20;99.90
45643;DHT22;31358;46.008;11.144;2022-08-19T04:09:51;18.20;99.90
45643;DHT22;31358;46.008;11.144;2022-08-19T04:12:18;18.20;99.90
45643;DHT22;31358;46.008;11.144;2022-08-19T04:14:45;18.20;99.90
45643;DHT22;31358;46.008;11.144;2022-08-19T04:17:11;18.30;99.90
45643;DHT22;31358;46.008;11.144;2022-08-19T04:19:38;18.20;99.90
45643;DHT22;31358;46.008;11.144;2022-08-19T04:22:04;18.20;99.90
45643;DHT22;31358;46.008;11.144;2022-08-19T04:24:30;18.10;99.90
45643;DHT22;31358;46.008;11.144;2022-08-19T04:26:56;18.00;99.90
45643;DHT22;31358;46.008;11.144;2022-08-19T04:29:24;18.10;99.90
45643;DHT22;31358;46.008;11.144;2022-08-19T04:31:51;18.00;99.90
45643;DHT22;31358;46.008;11.144;2022-08-19T04:34:20;18.10;99.90
45643;DHT22;31358;46.008;11.144;2022-08-19T04:36:50;18.10;99.90
45643;DHT22;31358;46.008;11.144;2022-08-19T04:39:26;17.90;99.90
45643;DHT22;31358;46.008;11.144;2022-08-19T04:42:10;17.70;99.90
45643;DHT22;31358;46.008;11.144;2022-08-19T04:44:54;17.70;99.90
45643;DHT22;31358;46.008;11.144;2022-08-19T04:47:20;17.80;99.90
45643;DHT22;31358;46.008;11.144;2022-08-19T04:49:46;17.80;99.90
45643;DHT22;31358;46.008;11.144;2022-08-19T04:52:11;17.90;99.90
45643;DHT22;31358;46.008;11.144;2022-08-19T04:54:37;17.90;99.90
45643;DHT22;31358;46.008;11.144;2022-08-19T04:57:03;17.70;99.90
45643;DHT22;31358;46.008;11.144;2022-08-19T04:59:31;17.60;99.90
45643;DHT22;31358;46.008;11.144;2022-08-19T05:01:58;17.60;99.90
45643;DHT22;31358;46.008;11.144;2022-08-19T05:04:24;17.70;99.90
45643;DHT22;31358;46.008;11.144;2022-08-19T05:06:50;17.70;99.90
45643;DHT22;31358;46.008;11.144;2022-08-19T05:09:17;17.60;99.90
45643;DHT22;31358;46.008;11.144;2022-08-19T05:11:43;17.70;99.90
45643;DHT22;31358;46.008;11.144;2022-08-19T05:14:10;17.80;99.90
45643;DHT22;31358;46.008;11.144;2022-08-19T05:16:38;18.00;99.90
45643;DHT22;31358;46.008;11.144;2022-08-19T05:19:03;18.00;99.90
45643;DHT22;31358;46.008;11.144;2022-08-19T05:21:48;18.00;99.90
45643;DHT22;31358;46.008;11.144;2022-08-19T05:24:32;18.10;99.90
45643;DHT22;31358;46.008;11.144;2022-08-19T05:27:01;18.00;99.90
45643;DHT22;31358;46.008;11.144;2022-08-19T05:29:28;18.00;99.90
45643;DHT22;31358;46.008;11.144;2022-08-19T05:31:55;18.10;99.90
45643;DHT22;31358;46.008;11.144;2022-08-19T05:34:22;18.20;99.90
45643;DHT22;31358;46.008;11.144;2022-08-19T05:36:54;18.20;99.90
45643;DHT22;31358;46.008;11.144;2022-08-19T05:39:23;18.10;99.90
45643;DHT22;31358;46.008;11.144;2022-08-19T05:41:52;18.10;99.90
45643;DHT22;31358;46.008;11.144;2022-08-19T05:44:18;17.90;99.90
45643;DHT22;31358;46.008;11.144;2022-08-19T05:46:45;18.10;99.90
45643;DHT22;31358;46.008;11.144;2022-08-19T05:49:13;18.10;99.90
45643;DHT22;31358;46.008;11.144;2022-08-19T05:51:39;18.10;99.90
45643;DHT22;31358;46.008;11.144;2022-08-19T05:54:06;18.00;99.90
45643;DHT22;31358;46.008;11.144;2022-08-19T05:56:32;18.00;99.90
45643;DHT22;31358;46.008;11.144;2022-08-19T05:59:02;18.10;99.90
45643;DHT22;31358;46.008;11.144;2022-08-19T06:01:29;18.30;99.90
45643;DHT22;31358;46.008;11.144;2022-08-19T06:03:55;18.40;99.90
45643;DHT22;31358;46.008;11.144;2022-08-19T06:06:21;18.30;99.90
45643;DHT22;31358;46.008;11.144;2022-08-19T06:08:47;18.50;99.90
45643;DHT22;31358;46.008;11.144;2022-08-19T06:11:28;18.60;99.90
45643;DHT22;31358;46.008;11.144;2022-08-19T06:14:00;18.70;99.90
45643;DHT22;31358;46.008;11.144;2022-08-19T06:16:27;18.80;99.90
45643;DHT22;31358;46.008;11.144;2022-08-19T06:18:53;19.00;99.90
45643;DHT22;31358;46.008;11.144;2022-08-19T06:21:25;19.20;99.90
45643;DHT22;31358;46.008;11.144;2022-08-19T06:23:52;19.30;99.90
45643;DHT22;31358;46.008;11.144;2022-08-19T06:26:21;19.50;99.90
45643;DHT22;31358;46.008;11.144;2022-08-19T06:28:48;19.70;99.90
45643;DHT22;31358;46.008;11.144;2022-08-19T06:31:20;20.00;99.90
45643;DHT22;31358;46.008;11.144;2022-08-19T06:33:48;20.40;99.90
45643;DHT22;31358;46.008;11.144;2022-08-19T06:36:22;20.50;99.90
45643;DHT22;31358;46.008;11.144;2022-08-19T06:38:51;20.50;99.90
45643;DHT22;31358;46.008;11.144;2022-08-19T06:41:16;20.70;99.90
45643;DHT22;31358;46.008;11.144;2022-08-19T06:43:42;20.50;99.90
45643;DHT22;31358;46.008;11.144;2022-08-19T06:46:13;20.50;99.90
45643;DHT22;31358;46.008;11.144;2022-08-19T06:48:39;20.60;99.90
45643;DHT22;31358;46.008;11.144;2022-08-19T06:51:05;21.00;99.90
45643;DHT22;31358;46.008;11.144;2022-08-19T06:53:31;21.40;99.90
45643;DHT22;31358;46.008;11.144;2022-08-19T06:55:57;21.50;99.90
45643;DHT22;31358;46.008;11.144;2022-08-19T06:58:28;21.70;99.90
45643;DHT22;31358;46.008;11.144;2022-08-19T07:00:58;21.80;99.90
45643;DHT22;31358;46.008;11.144;2022-08-19T07:03:31;21.90;99.90
45643;DHT22;31358;46.008;11.144;2022-08-19T07:06:06;21.80;99.90
45643;DHT22;31358;46.008;11.144;2022-08-19T07:08:33;21.70;99.90
45643;DHT22;31358;46.008;11.144;2022-08-19T07:10:59;21.90;99.90
45643;DHT22;31358;46.008;11.144;2022-08-19T07:13:25;21.80;99.90
45643;DHT22;31358;46.008;11.144;2022-08-19T07:15:51;21.60;99.90
45643;DHT22;31358;46.008;11.144;2022-08-19T07:18:20;21.60;99.90
45643;DHT22;31358;46.008;11.144;2022-08-19T07:20:47;21.60;99.90
45643;DHT22;31358;46.008;11.144;2022-08-19T07:23:13;21.40;99.90
45643;DHT22;31358;46.008;11.144;2022-08-19T07:25:39;21.20;99.90
45643;DHT22;31358;46.008;11.144;2022-08-19T07:28:05;20.90;99.90
45643;DHT22;31358;46.008;11.144;2022-08-19T07:30:32;20.80;99.90
45643;DHT22;31358;46.008;11.144;2022-08-19T07:33:01;20.80;99.90
45643;DHT22;31358;46.008;11.144;2022-08-19T07:35:26;20.70;99.90
45643;DHT22;31358;46.008;11.144;2022-08-19T07:37:53;20.70;99.90
45643;DHT22;31358;46.008;11.144;2022-08-19T07:40:19;20.70;99.90
45643;DHT22;31358;46.008;11.144;2022-08-19T07:42:45;20.60;99.90
45643;DHT22;31358;46.008;11.144;2022-08-19T07:45:10;20.60;99.90
45643;DHT22;31358;46.008;11.144;2022-08-19T07:47:36;20.60;99.90
45643;DHT22;31358;46.008;11.144;2022-08-19T07:50:04;20.60;99.90
45643;DHT22;31358;46.008;11.144;2022-08-19T07:52:30;20.60;99.90
45643;DHT22;31358;46.008;11.144;2022-08-19T07:54:56;20.70;99.90
45643;DHT22;31358;46.008;11.144;2022-08-19T07:57:22;20.70;99.90
45643;DHT22;31358;46.008;11.144;2022-08-19T07:59:48;20.70;99.90
45643;DHT22;31358;46.008;11.144;2022-08-19T08:02:13;20.80;99.90
45643;DHT22;31358;46.008;11.144;2022-08-19T08:04:39;20.80;99.90
45643;DHT22;31358;46.008;11.144;2022-08-19T08:07:24;20.80;99.90
45643;DHT22;31358;46.008;11.144;2022-08-19T08:10:08;20.90;99.90
45643;DHT22;31358;46.008;11.144;2022-08-19T08:12:37;20.90;99.90
45643;DHT22;31358;46.008;11.144;2022-08-19T08:15:09;20.90;99.90
45643;DHT22;31358;46.008;11.144;2022-08-19T08:17:35;21.00;99.90
45643;DHT22;31358;46.008;11.144;2022-08-19T08:20:06;21.10;99.90
45643;DHT22;31358;46.008;11.144;2022-08-19T08:22:32;21.10;99.90
45643;DHT22;31358;46.008;11.144;2022-08-19T08:25:19;21.20;99.90
45643;DHT22;31358;46.008;11.144;2022-08-19T08:27:46;21.10;99.90
45643;DHT22;31358;46.008;11.144;2022-08-19T08:30:16;21.40;99.90
45643;DHT22;31358;46.008;11.144;2022-08-19T08:32:42;21.30;99.90
45643;DHT22;31358;46.008;11.144;2022-08-19T08:35:10;21.40;99.90
45643;DHT22;31358;46.008;11.144;2022-08-19T08:37:37;21.30;99.90
45643;DHT22;31358;46.008;11.144;2022-08-19T08:43:03;21.40;99.90
45643;DHT22;31358;46.008;11.144;2022-08-19T08:45:33;21.40;99.90
45643;DHT22;31358;46.008;11.144;2022-08-19T08:48:15;21.50;99.90
45643;DHT22;31358;46.008;11.144;2022-08-19T08:50:45;21.40;99.90
45643;DHT22;31358;46.008;11.144;2022-08-19T08:53:14;21.40;99.90
45643;DHT22;31358;46.008;11.144;2022-08-19T08:55:41;21.50;99.90
45643;DHT22;31358;46.008;11.144;2022-08-19T08:58:13;21.30;99.90
45643;DHT22;31358;46.008;11.144;2022-08-19T09:00:44;21.20;99.90
45643;DHT22;31358;46.008;11.144;2022-08-19T09:03:26;21.30;99.90
45643;DHT22;31358;46.008;11.144;2022-08-19T09:06:54;21.40;99.90
45643;DHT22;31358;46.008;11.144;2022-08-19T09:14:32;21.40;99.90
45643;DHT22;31358;46.008;11.144;2022-08-19T09:16:59;21.60;99.90
45643;DHT22;31358;46.008;11.144;2022-08-19T09:19:29;21.70;99.90
45643;DHT22;31358;46.008;11.144;2022-08-19T09:21:55;21.90;99.90
45643;DHT22;31358;46.008;11.144;2022-08-19T09:24:21;22.00;99.90
45643;DHT22;31358;46.008;11.144;2022-08-19T09:26:46;22.00;99.90
45643;DHT22;31358;46.008;11.144;2022-08-19T09:29:12;22.10;99.90
45643;DHT22;31358;46.008;11.144;2022-08-19T09:31:38;22.20;99.90
45643;DHT22;31358;46.008;11.144;2022-08-19T09:34:04;22.30;99.90
45643;DHT22;31358;46.008;11.144;2022-08-19T09:36:31;22.50;99.90
45643;DHT22;31358;46.008;11.144;2022-08-19T09:39:03;22.30;99.90
45643;DHT22;31358;46.008;11.144;2022-08-19T09:41:29;22.20;99.90
45643;DHT22;31358;46.008;11.144;2022-08-19T09:43:55;22.10;99.90
45643;DHT22;31358;46.008;11.144;2022-08-19T09:46:24;22.00;99.90
45643;DHT22;31358;46.008;11.144;2022-08-19T09:48:51;21.90;99.90
45643;DHT22;31358;46.008;11.144;2022-08-19T09:51:21;21.90;99.90
45643;DHT22;31358;46.008;11.144;2022-08-19T09:53:48;21.90;99.90
45643;DHT22;31358;46.008;11.144;2022-08-19T09:56:18;22.00;99.90
45643;DHT22;31358;46.008;11.144;2022-08-19T09:58:43;22.20;99.90
45643;DHT22;31358;46.008;11.144;2022-08-19T10:01:18;22.40;99.90
45643;DHT22;31358;46.008;11.144;2022-08-19T10:03:47;22.70;99.90
45643;DHT22;31358;46.008;11.144;2022-08-19T10:06:14;23.00;99.90
45643;DHT22;31358;46.008;11.144;2022-08-19T10:08:39;23.30;99.90
45643;DHT22;31358;46.008;11.144;2022-08-19T10:11:05;23.50;99.90
45643;DHT22;31358;46.008;11.144;2022-08-19T10:13:32;23.60;99.90
45643;DHT22;31358;46.008;11.144;2022-08-19T10:16:08;23.10;99.90
45643;DHT22;31358;46.008;11.144;2022-08-19T10:18:35;22.90;99.90
45643;DHT22;31358;46.008;11.144;2022-08-19T10:23:35;22.60;99.90
45643;DHT22;31358;46.008;11.144;2022-08-19T10:26:02;22.70;99.90
45643;DHT22;31358;46.008;11.144;2022-08-19T10:28:28;22.90;99.90
45643;DHT22;31358;46.008;11.144;2022-08-19T10:30:54;23.00;99.90
45643;DHT22;31358;46.008;11.144;2022-08-19T10:33:20;22.80;99.90
45643;DHT22;31358;46.008;11.144;2022-08-19T10:35:45;23.10;99.90
45643;DHT22;31358;46.008;11.144;2022-08-19T10:38:12;23.20;99.90
45643;DHT22;31358;46.008;11.144;2022-08-19T10:40:38;23.20;99.90
45643;DHT22;31358;46.008;11.144;2022-08-19T10:43:04;23.20;99.90
45643;DHT22;31358;46.008;11.144;2022-08-19T10:45:29;23.10;99.90
45643;DHT22;31358;46.008;11.144;2022-08-19T10:47:55;23.20;99.90
45643;DHT22;31358;46.008;11.144;2022-08-19T10:50:21;23.40;99.90
45643;DHT22;31358;46.008;11.144;2022-08-19T10:53:07;23.30;99.90
45643;DHT22;31358;46.008;11.144;2022-08-19T10:55:36;23.50;99.90
45643;DHT22;31358;46.008;11.144;2022-08-19T10:58:20;23.70;99.90
45643;DHT22;31358;46.008;11.144;2022-08-19T11:00:53;23.70;99.90
45643;DHT22;31358;46.008;11.144;2022-08-19T11:03:20;23.60;99.90
45643;DHT22;31358;46.008;11.144;2022-08-19T11:05:45;23.70;99.90
45643;DHT22;31358;46.008;11.144;2022-08-19T11:08:11;23.70;99.90
45643;DHT22;31358;46.008;11.144;2022-08-19T11:10:41;23.60;99.90
45643;DHT22;31358;46.008;11.144;2022-08-19T11:13:06;23.60;99.90
45643;DHT22;31358;46.008;11.144;2022-08-19T11:15:32;23.90;99.90
45643;DHT22;31358;46.008;11.144;2022-08-19T11:17:58;24.00;99.90
45643;DHT22;31358;46.008;11.144;2022-08-19T11:20:24;23.80;99.90
45643;DHT22;31358;46.008;11.144;2022-08-19T11:22:52;23.80;99.90
45643;DHT22;31358;46.008;11.144;2022-08-19T11:25:19;23.90;99.90
45643;DHT22;31358;46.008;11.144;2022-08-19T11:27:45;23.90;99.90
45643;DHT22;31358;46.008;11.144;2022-08-19T11:30:12;23.80;99.90
45643;DHT22;31358;46.008;11.144;2022-08-19T11:32:41;24.00;99.90
45643;DHT22;31358;46.008;11.144;2022-08-19T11:35:07;24.20;99.90
45643;DHT22;31358;46.008;11.144;2022-08-19T11:37:33;24.10;99.90
45643;DHT22;31358;46.008;11.144;2022-08-19T11:40:04;24.10;99.90
45643;DHT22;31358;46.008;11.144;2022-08-19T11:42:29;24.20;99.90
45643;DHT22;31358;46.008;11.144;2022-08-19T11:45:13;24.30;99.90
45643;DHT22;31358;46.008;11.144;2022-08-19T11:47:39;24.40;99.90
45643;DHT22;31358;46.008;11.144;2022-08-19T11:50:05;24.50;99.90
45643;DHT22;31358;46.008;11.144;2022-08-19T11:52:31;24.50;99.90
45643;DHT22;31358;46.008;11.144;2022-08-19T11:54:57;24.50;99.90
45643;DHT22;31358;46.008;11.144;2022-08-19T11:57:22;24.50;99.90
45643;DHT22;31358;46.008;11.144;2022-08-19T11:59:52;24.40;99.90
45643;DHT22;31358;46.008;11.144;2022-08-19T12:02:18;24.40;99.90
45643;DHT22;31358;46.008;11.144;2022-08-19T12:04:44;24.40;99.90
45643;DHT22;31358;46.008;11.144;2022-08-19T12:07:10;24.40;99.90
45643;DHT22;31358;46.008;11.144;2022-08-19T12:09:36;24.30;99.90
45643;DHT22;31358;46.008;11.144;2022-08-19T12:12:02;24.20;99.90
45643;DHT22;31358;46.008;11.144;2022-08-19T12:14:28;24.10;99.90
45643;DHT22;31358;46.008;11.144;2022-08-19T12:16:56;24.20;99.90
45643;DHT22;31358;46.008;11.144;2022-08-19T12:19:22;24.20;99.90
45643;DHT22;31358;46.008;11.144;2022-08-19T12:21:48;24.30;99.90
45643;DHT22;31358;46.008;11.144;2022-08-19T12:24:14;24.30;99.90
45643;DHT22;31358;46.008;11.144;2022-08-19T12:26:39;24.60;99.90
45643;DHT22;31358;46.008;11.144;2022-08-19T12:29:05;24.60;99.90
45643;DHT22;31358;46.008;11.144;2022-08-19T12:31:31;24.70;99.90
45643;DHT22;31358;46.008;11.144;2022-08-19T12:33:57;24.90;99.90
45643;DHT22;31358;46.008;11.144;2022-08-19T12:36:23;24.70;99.90
45643;DHT22;31358;46.008;11.144;2022-08-19T12:38:50;24.70;99.90
45643;DHT22;31358;46.008;11.144;2022-08-19T12:41:17;24.80;99.90
45643;DHT22;31358;46.008;11.144;2022-08-19T12:43:44;25.00;99.90
45643;DHT22;31358;46.008;11.144;2022-08-19T12:46:11;25.00;99.90
45643;DHT22;31358;46.008;11.144;2022-08-19T12:48:37;25.00;99.90
45643;DHT22;31358;46.008;11.144;2022-08-19T12:51:09;24.90;99.90
45643;DHT22;31358;46.008;11.144;2022-08-19T12:53:35;24.60;99.90
45643;DHT22;31358;46.008;11.144;2022-08-19T12:56:01;24.60;99.90
45643;DHT22;31358;46.008;11.144;2022-08-19T12:58:28;24.50;99.90
45643;DHT22;31358;46.008;11.144;2022-08-19T13:00:54;24.50;99.90
45643;DHT22;31358;46.008;11.144;2022-08-19T13:03:20;24.60;99.90
45643;DHT22;31358;46.008;11.144;2022-08-19T13:05:47;24.60;99.90
45643;DHT22;31358;46.008;11.144;2022-08-19T13:08:15;24.80;99.90
45643;DHT22;31358;46.008;11.144;2022-08-19T13:10:42;24.70;99.90
45643;DHT22;31358;46.008;11.144;2022-08-19T13:13:08;24.70;99.90
45643;DHT22;31358;46.008;11.144;2022-08-19T13:15:37;24.80;99.90
45643;DHT22;31358;46.008;11.144;2022-08-19T13:18:06;25.00;99.90
45643;DHT22;31358;46.008;11.144;2022-08-19T13:20:32;24.90;99.90
45643;DHT22;31358;46.008;11.144;2022-08-19T13:22:58;24.50;99.90
45643;DHT22;31358;46.008;11.144;2022-08-19T13:25:24;24.30;99.90
45643;DHT22;31358;46.008;11.144;2022-08-19T13:27:51;24.60;99.90
45643;DHT22;31358;46.008;11.144;2022-08-19T13:30:18;24.50;99.90
45643;DHT22;31358;46.008;11.144;2022-08-19T13:33:03;24.20;99.90
45643;DHT22;31358;46.008;11.144;2022-08-19T13:35:43;24.30;99.90
45643;DHT22;31358;46.008;11.144;2022-08-19T13:38:09;24.30;99.90
45643;DHT22;31358;46.008;11.144;2022-08-19T13:40:36;24.20;99.90
45643;DHT22;31358;46.008;11.144;2022-08-19T13:43:03;24.10;99.90
45643;DHT22;31358;46.008;11.144;2022-08-19T13:45:31;24.00;99.90
45643;DHT22;31358;46.008;11.144;2022-08-19T13:48:03;23.70;99.90
45643;DHT22;31358;46.008;11.144;2022-08-19T13:50:32;23.80;99.90
45643;DHT22;31358;46.008;11.144;2022-08-19T13:52:58;23.80;99.90
45643;DHT22;31358;46.008;11.144;2022-08-19T13:55:24;23.70;99.90
45643;DHT22;31358;46.008;11.144;2022-08-19T13:57:53;23.80;99.90
45643;DHT22;31358;46.008;11.144;2022-08-19T14:00:20;23.80;99.90
45643;DHT22;31358;46.008;11.144;2022-08-19T14:02:49;23.60;99.90
45643;DHT22;31358;46.008;11.144;2022-08-19T14:05:17;23.40;99.90
45643;DHT22;31358;46.008;11.144;2022-08-19T14:07:42;23.10;99.90
45643;DHT22;31358;46.008;11.144;2022-08-19T14:10:11;22.90;99.90
45643;DHT22;31358;46.008;11.144;2022-08-19T14:12:37;22.50;99.90
45643;DHT22;31358;46.008;11.144;2022-08-19T14:15:05;21.70;99.90
45643;DHT22;31358;46.008;11.144;2022-08-19T14:17:31;21.10;99.90
45643;DHT22;31358;46.008;11.144;2022-08-19T14:20:06;20.70;99.90
45643;DHT22;31358;46.008;11.144;2022-08-19T14:22:35;20.10;99.90
45643;DHT22;31358;46.008;11.144;2022-08-19T14:25:02;20.00;99.90
45643;DHT22;31358;46.008;11.144;2022-08-19T14:27:28;20.30;99.90
45643;DHT22;31358;46.008;11.144;2022-08-19T14:29:53;20.70;99.90
45643;DHT22;31358;46.008;11.144;2022-08-19T14:32:20;20.50;99.90
45643;DHT22;31358;46.008;11.144;2022-08-19T14:34:47;20.40;99.90
45643;DHT22;31358;46.008;11.144;2022-08-19T14:37:13;20.20;99.90
45643;DHT22;31358;46.008;11.144;2022-08-19T14:39:43;20.00;99.90
45643;DHT22;31358;46.008;11.144;2022-08-19T14:42:11;19.90;99.90
45643;DHT22;31358;46.008;11.144;2022-08-19T14:44:37;19.90;99.90
45643;DHT22;31358;46.008;11.144;2022-08-19T14:47:03;20.00;99.90
45643;DHT22;31358;46.008;11.144;2022-08-19T14:49:29;20.20;99.90
45643;DHT22;31358;46.008;11.144;2022-08-19T14:51:55;20.30;99.90
45643;DHT22;31358;46.008;11.144;2022-08-19T14:54:21;20.30;99.90
45643;DHT22;31358;46.008;11.144;2022-08-19T14:56:47;20.30;99.90
45643;DHT22;31358;46.008;11.144;2022-08-19T14:59:13;20.30;99.90
45643;DHT22;31358;46.008;11.144;2022-08-19T15:01:39;20.60;99.90
45643;DHT22;31358;46.008;11.144;2022-08-19T15:04:05;20.80;99.90
45643;DHT22;31358;46.008;11.144;2022-08-19T15:06:31;20.80;99.90
45643;DHT22;31358;46.008;11.144;2022-08-19T15:08:57;20.80;99.90
45643;DHT22;31358;46.008;11.144;2022-08-19T15:11:24;21.10;99.90
45643;DHT22;31358;46.008;11.144;2022-08-19T15:13:51;21.40;99.90
45643;DHT22;31358;46.008;11.144;2022-08-19T15:16:19;21.50;99.90
45643;DHT22;31358;46.008;11.144;2022-08-19T15:18:46;21.50;99.90
45643;DHT22;31358;46.008;11.144;2022-08-19T15:21:18;21.60;99.90
45643;DHT22;31358;46.008;11.144;2022-08-19T15:23:45;21.70;99.90
45643;DHT22;31358;46.008;11.144;2022-08-19T15:26:11;21.80;99.90
45643;DHT22;31358;46.008;11.144;2022-08-19T15:28:38;21.70;99.90
45643;DHT22;31358;46.008;11.144;2022-08-19T15:31:04;21.80;99.90
45643;DHT22;31358;46.008;11.144;2022-08-19T15:33:33;21.90;99.90
45643;DHT22;31358;46.008;11.144;2022-08-19T15:36:03;22.20;99.90